Terminal Aerodrome Forecast
Issued by NWS Shreveport, LA

Home | Current Version | Previous Version | Text Only | Print | Product List | Glossary On
Versions: 1 2 3 4 5 6 7 8 9 10 11 12 13 14 15 16 17 18 19 20 21 22 23
945
FTUS44 KSHV 272331
TAFLFK
TAF
KLFK 272331Z 2800/2824 18006KT P6SM SCT050 SCT250
      TEMPO 2809/2813 15003KT 3SM BR
     FM281300 VRB03KT P6SM SCT015 SCT080 BKN250
     FM281500 21007KT P6SM SCT030 SCT100 BKN250
     FM281800 22008KT P6SM VCTS SCT045CB BKN250=

USA.gov is the U.S. government's official web portal to all federal, state and local government web resources and services.